MHTG/TGU METAR and TAF weather

Enter ICAO airport designator
Station Type Date Time Source
MHTG METAR 2019/06/17 07:00 UTC NOAA

MHTG 170700Z 25008KT 9999 FEW028 BKN250 18/16 Q1018 A3006 NOSIG


Station Type Date Time Source
MHTG Decoded METAR 2019/06/17 07:00 UTC NOAA

Tegucigalpa, Honduras (MHTG) 14-03N 087-13W 1007M
Jun 17, 2019 - 03:00 AM EDT / 2019.06.17 0700 UTC
Wind: from the WSW (250 degrees) at 9 MPH (8 KT):0
Visibility: greater than 7 mile(s):0
Sky conditions: mostly cloudy
Temperature: 64 F (18 C)
Dew Point: 60 F (16 C)
Relative Humidity: 88%
Pressure (altimeter): 30.06 in. Hg (1017 hPa)
ob: MHTG 170700Z 25008KT 9999 FEW028 BKN250 18/16 Q1018 A3006 NOSIG
cycle: 7

Station Type Date Time Source
MHTG TAF 2019/06/17 06:38 UTC NOAA

TAF MHTG 170420Z 1706/1806 04005KT 9999 SCT028 TX28/1720Z TN18/1712Z
BECMG 1712/1714 SCT026 SCT080
BECMG 1720/1722 SCT032TCU
BECMG 1801/1803 SCT026

Example: see airport list